Time;durP1;ratioP1;P1;durP2;ratioP2;P2;SDS_P1;SDS_P2;PMS_P1;PMS_P2;Temp;Humidity;BMP_temperature;BMP_pressure;BME280_temperature;BME280_humidity;BME280_pressure;Samples;Min_cycle;Max_cycle;Signal;HPM_P1;HPM_P2
2021/10/28 00:14:21;;;;;;;9.60;4.27;;;;;;;12.56;nan;102305.22;5087566;28;20488;-57
2021/10/28 00:16:49;;;;;;;5.80;4.47;;;;;;;12.59;nan;102307.50;5082951;28;20345;-57
2021/10/28 00:19:16;;;;;;;5.43;4.00;;;;;;;12.63;nan;102313.25;5087971;28;20027;-56
2021/10/28 00:21:43;;;;;;;5.85;4.15;;;;;;;12.64;nan;102301.44;5083896;28;20432;-57
2021/10/28 00:24:11;;;;;;;6.45;3.83;;;;;;;12.55;nan;102300.06;5087399;28;20020;-57
2021/10/28 00:26:40;;;;;;;9.77;4.25;;;;;;;12.58;nan;102296.97;5086018;28;20078;-57
2021/10/28 00:29:08;;;;;;;7.38;4.47;;;;;;;12.57;nan;102301.53;5085672;28;20111;-57
2021/10/28 00:31:36;;;;;;;5.82;3.90;;;;;;;12.53;nan;102304.84;5084645;28;20511;-57
2021/10/28 00:34:03;;;;;;;7.85;4.28;;;;;;;12.56;nan;102307.91;5084380;28;20107;-57
2021/10/28 00:36:29;;;;;;;8.50;4.43;;;;;;;12.57;nan;102311.44;5082038;28;20020;-57
2021/10/28 00:38:55;;;;;;;8.45;4.22;;;;;;;12.53;nan;102315.59;5066364;28;20093;-57
2021/10/28 00:41:22;;;;;;;7.13;4.65;;;;;;;12.51;nan;102313.16;5084233;28;20031;-56
2021/10/28 00:43:52;;;;;;;7.65;4.22;;;;;;;12.48;nan;102307.41;5085071;28;20538;-57
2021/10/28 00:46:18;;;;;;;4.53;4.03;;;;;;;12.50;nan;102316.88;5085604;28;21771;-57
2021/10/28 00:48:45;;;;;;;6.00;4.18;;;;;;;12.48;nan;102318.97;5085043;28;20020;-57
2021/10/28 00:51:11;;;;;;;6.65;3.85;;;;;;;12.51;nan;102309.63;5084384;28;20620;-57
2021/10/28 00:53:37;;;;;;;6.80;4.47;;;;;;;12.47;nan;102311.13;5085436;28;20198;-57
2021/10/28 00:56:05;;;;;;;5.75;4.30;;;;;;;12.42;nan;102314.50;5069028;28;20374;-57
2021/10/28 00:58:32;;;;;;;9.40;3.85;;;;;;;12.48;nan;102310.09;5082706;28;20550;-57
2021/10/28 01:01:00;;;;;;;7.57;4.28;;;;;;;12.48;nan;102307.41;5082103;28;20046;-57
2021/10/28 01:03:26;;;;;;;6.72;4.63;;;;;;;12.52;nan;102308.59;5086699;28;20085;-57
2021/10/28 01:05:53;;;;;;;6.47;4.20;;;;;;;12.57;nan;102322.22;5086074;28;20032;-57
2021/10/28 01:08:18;;;;;;;7.30;4.65;;;;;;;12.51;nan;102317.69;5087159;28;20062;-57
2021/10/28 01:10:48;;;;;;;7.10;4.38;;;;;;;12.50;nan;102311.50;5085191;28;20024;-57
2021/10/28 01:13:16;;;;;;;9.15;4.50;;;;;;;12.53;nan;102318.28;5085457;28;20024;-56
2021/10/28 01:15:42;;;;;;;7.00;4.25;;;;;;;12.54;nan;102317.25;5087986;28;20038;-57
2021/10/28 01:18:13;;;;;;;7.40;4.13;;;;;;;12.50;nan;102310.69;5091788;28;20032;-57
2021/10/28 01:20:40;;;;;;;7.47;4.45;;;;;;;12.48;nan;102312.78;5087591;28;20107;-56
2021/10/28 01:23:07;;;;;;;7.93;4.65;;;;;;;12.47;nan;102320.03;5087696;28;20093;-57
2021/10/28 01:25:33;;;;;;;7.28;4.43;;;;;;;12.50;nan;102316.06;5090182;28;20032;-57
2021/10/28 01:28:00;;;;;;;8.85;4.32;;;;;;;12.43;nan;102318.00;5087679;28;20120;-57
2021/10/28 01:30:26;;;;;;;8.93;4.35;;;;;;;12.51;nan;102317.69;5089378;28;20027;-56
2021/10/28 01:32:51;;;;;;;9.05;4.55;;;;;;;12.52;nan;102314.78;5075897;28;20028;-57
2021/10/28 01:35:19;;;;;;;5.85;3.95;;;;;;;12.50;nan;102316.06;5089526;28;20024;-57
2021/10/28 01:37:44;;;;;;;7.35;4.43;;;;;;;12.45;nan;102318.59;5088758;28;20043;-57
2021/10/28 01:40:11;;;;;;;7.82;4.50;;;;;;;12.43;nan;102315.31;5088112;28;20032;-57
2021/10/28 01:42:39;;;;;;;6.38;4.15;;;;;;;12.47;nan;102321.88;5091231;28;20028;-57
2021/10/28 01:45:06;;;;;;;6.97;4.40;;;;;;;12.47;nan;102314.63;5090330;28;20016;-57
2021/10/28 01:47:32;;;;;;;7.57;4.38;;;;;;;12.43;nan;102316.13;5090491;28;20043;-56
2021/10/28 01:49:58;;;;;;;10.05;3.97;;;;;;;12.40;nan;102303.97;5091400;28;20043;-57
2021/10/28 01:52:23;;;;;;;7.05;4.30;;;;;;;12.46;nan;102309.50;5085870;28;20112;-57
2021/10/28 01:54:49;;;;;;;7.25;4.47;;;;;;;12.39;nan;102310.38;5089618;28;20034;-57
2021/10/28 01:57:17;;;;;;;8.35;4.53;;;;;;;12.42;nan;102310.97;5086501;28;20557;-56
2021/10/28 01:59:42;;;;;;;7.13;4.00;;;;;;;12.37;nan;102308.94;5087990;28;20103;-57
2021/10/28 02:02:08;;;;;;;7.57;4.30;;;;;;;12.37;nan;102298.19;5086791;28;20035;-56
2021/10/28 02:04:33;;;;;;;8.73;4.63;;;;;;;12.45;nan;102302.47;5087352;28;20060;-56
2021/10/28 02:07:01;;;;;;;8.00;4.40;;;;;;;12.42;nan;102301.06;5088007;28;20051;-57
2021/10/28 02:09:27;;;;;;;7.85;4.70;;;;;;;12.42;nan;102298.38;5086124;28;20399;-57
2021/10/28 02:11:53;;;;;;;7.78;4.10;;;;;;;12.29;nan;102302.00;5086837;28;20031;-57
2021/10/28 02:14:18;;;;;;;5.70;4.03;;;;;;;12.35;nan;102297.59;5088007;28;20024;-57
2021/10/28 02:16:44;;;;;;;8.23;3.83;;;;;;;12.24;nan;102303.72;5088131;28;20028;-57
2021/10/28 02:19:10;;;;;;;4.60;3.72;;;;;;;12.29;nan;102301.19;5086612;28;20024;-57
2021/10/28 02:21:36;;;;;;;6.90;3.95;;;;;;;12.27;nan;102300.59;5086706;28;20254;-57
2021/10/28 02:24:01;;;;;;;7.35;3.95;;;;;;;12.22;nan;102297.75;5088287;28;20110;-57
2021/10/28 02:26:27;;;;;;;7.70;4.22;;;;;;;12.18;nan;102302.72;5083157;28;20363;-57
2021/10/28 02:28:57;;;;;;;6.70;4.00;;;;;;;12.10;nan;102305.69;5085206;28;20028;-57
2021/10/28 02:31:23;;;;;;;5.55;4.20;;;;;;;12.12;nan;102294.72;5088351;28;20023;-57
2021/10/28 02:33:49;;;;;;;7.15;4.03;;;;;;;12.08;nan;102297.84;5090338;28;20167;-57
2021/10/28 02:36:15;;;;;;;6.90;3.97;;;;;;;12.07;nan;102303.44;5089154;28;20404;-57
2021/10/28 02:38:42;;;;;;;6.22;4.00;;;;;;;11.98;nan;102294.00;5087944;28;20089;-57
2021/10/28 02:41:07;;;;;;;6.10;3.90;;;;;;;11.86;nan;102303.84;5087750;28;20378;-57
2021/10/28 02:43:33;;;;;;;6.20;4.00;;;;;;;11.92;nan;102297.59;5086174;28;20034;-56
2021/10/28 02:45:58;;;;;;;6.93;3.83;;;;;;;11.87;nan;102295.56;5089610;28;20019;-57
2021/10/28 02:48:24;;;;;;;7.68;4.35;;;;;;;11.90;nan;102295.13;5088369;28;20036;-57
2021/10/28 02:50:49;;;;;;;7.28;4.35;;;;;;;11.90;nan;102297.81;5086794;28;20059;-57
2021/10/28 02:53:15;;;;;;;7.20;4.35;;;;;;;11.92;nan;102297.59;5087205;28;20027;-57
2021/10/28 02:55:40;;;;;;;8.57;4.35;;;;;;;11.84;nan;102295.16;5088731;28;20028;-57
2021/10/28 02:58:06;;;;;;;7.65;4.20;;;;;;;11.94;nan;102298.19;5085189;28;20024;-57
2021/10/28 03:00:31;;;;;;;6.97;4.50;;;;;;;11.83;nan;102293.50;5085560;28;20080;-57
2021/10/28 03:02:57;;;;;;;8.52;4.03;;;;;;;11.80;nan;102290.22;5068097;28;20058;-56
2021/10/28 03:05:22;;;;;;;9.30;4.18;;;;;;;11.73;nan;102297.47;5088884;28;20035;-56
2021/10/28 03:07:48;;;;;;;7.32;4.80;;;;;;;11.62;nan;102300.84;5085184;28;20031;-56
2021/10/28 03:10:15;;;;;;;9.90;4.68;;;;;;;11.71;nan;102302.25;5084170;28;20378;-57
2021/10/28 03:12:42;;;;;;;7.07;4.13;;;;;;;11.63;nan;102296.31;5087597;28;20485;-57
2021/10/28 03:15:11;;;;;;;6.63;4.13;;;;;;;11.55;nan;102292.03;5089679;28;20020;-56
2021/10/28 03:28:02;;;;;;;7.00;5.18;;;;;;;11.35;nan;102296.72;5087031;28;20016;-57
2021/10/28 03:30:29;;;;;;;6.47;4.30;;;;;;;11.31;nan;102292.78;5084414;28;20418;-57
2021/10/28 03:32:54;;;;;;;8.90;4.93;;;;;;;11.24;nan;102289.34;5088549;28;20046;-57
2021/10/28 03:35:21;;;;;;;8.48;5.35;;;;;;;11.10;nan;102294.75;5087458;28;20023;-57
2021/10/28 04:17:27;;;;;;;8.75;5.25;;;;;;;9.87;nan;102307.13;5085575;28;20030;-57
2021/10/28 04:30:17;;;;;;;8.32;5.78;;;;;;;9.57;nan;102316.59;5084593;28;19912;-57
2021/10/28 04:32:43;;;;;;;9.55;5.82;;;;;;;9.55;nan;102315.97;5083944;28;20031;-57
2021/10/28 04:35:10;;;;;;;9.05;5.53;;;;;;;9.49;nan;102309.56;5086265;28;20024;-57
2021/10/28 04:37:39;;;;;;;9.10;5.97;;;;;;;9.38;nan;102305.66;5085715;28;20103;-57
2021/10/28 04:40:06;;;;;;;9.32;6.47;;;;;;;9.37;nan;102309.34;5081860;28;20039;-56
2021/10/28 04:42:31;;;;;;;8.57;6.15;;;;;;;9.42;nan;102311.41;5086493;28;20081;-57
2021/10/28 04:44:57;;;;;;;11.70;6.53;;;;;;;9.45;nan;102318.22;5084541;28;20094;-57
2021/10/28 04:47:22;;;;;;;9.52;6.47;;;;;;;9.37;nan;102314.69;5087837;28;20028;-56
2021/10/28 04:49:48;;;;;;;8.80;6.40;;;;;;;9.29;nan;102317.53;5084384;28;20032;-57
2021/10/28 04:52:13;;;;;;;11.23;7.03;;;;;;;9.36;nan;102323.75;5085295;28;20036;-56
2021/10/28 04:54:39;;;;;;;8.68;6.38;;;;;;;9.26;nan;102317.94;5083991;28;20020;-56
2021/10/28 04:57:05;;;;;;;11.50;7.00;;;;;;;9.18;nan;102320.81;5086505;28;20039;-57
2021/10/28 04:59:32;;;;;;;9.95;6.97;;;;;;;9.18;nan;102320.81;5084027;28;20024;-56
2021/10/28 05:01:57;;;;;;;11.45;7.60;;;;;;;9.08;nan;102325.69;5083925;28;20036;-57
2021/10/28 05:04:24;;;;;;;11.07;7.20;;;;;;;9.08;nan;102325.69;5084721;28;20028;-56
2021/10/28 05:06:49;;;;;;;13.00;7.85;;;;;;;9.01;nan;102330.19;5085685;28;20264;-55
2021/10/28 05:09:23;;;;;;;13.07;7.63;;;;;;;8.98;nan;102322.59;5085452;28;20039;-56
2021/10/28 05:11:49;;;;;;;13.45;8.35;;;;;;;8.96;nan;102321.94;5084492;28;20032;-56
2021/10/28 05:14:14;;;;;;;11.93;7.93;;;;;;;8.99;nan;102324.25;5084925;28;20425;-57
2021/10/28 05:16:40;;;;;;;12.55;7.85;;;;;;;8.90;nan;102328.09;5084951;28;20107;-56
2021/10/28 05:19:06;;;;;;;11.07;7.85;;;;;;;8.90;nan;102325.41;5087632;28;20089;-56
2021/10/28 05:21:32;;;;;;;14.30;8.30;;;;;;;8.85;nan;102328.69;5084785;28;20016;-57
2021/10/28 05:23:57;;;;;;;12.07;8.57;;;;;;;8.87;nan;102329.31;5084059;28;20128;-56
2021/10/28 05:26:23;;;;;;;13.35;8.95;;;;;;;8.82;nan;102325.59;5083431;28;20549;-56
2021/10/28 05:28:48;;;;;;;15.63;8.98;;;;;;;8.82;nan;102330.94;5086557;28;20111;-56
2021/10/28 05:31:14;;;;;;;12.15;8.27;;;;;;;8.69;nan;102324.50;5082195;28;20028;-56
2021/10/28 05:33:40;;;;;;;15.38;9.57;;;;;;;8.70;nan;102322.63;5086848;28;20097;-56
2021/10/28 05:36:06;;;;;;;15.00;9.77;;;;;;;8.61;nan;102324.63;5086709;28;20386;-57
2021/10/28 05:38:31;;;;;;;16.48;10.07;;;;;;;8.64;nan;102326.94;5083212;28;20020;-57
2021/10/28 05:40:57;;;;;;;16.50;10.35;;;;;;;8.61;nan;102334.50;5080366;28;20035;-56
2021/10/28 05:43:22;;;;;;;15.65;10.23;;;;;;;8.63;nan;102333.31;5083251;28;20186;-57
2021/10/28 05:45:49;;;;;;;17.73;10.85;;;;;;;8.58;nan;102330.38;5064316;28;20086;-57
2021/10/28 05:48:15;;;;;;;14.35;10.18;;;;;;;8.60;nan;102324.81;5083167;28;20024;-57
2021/10/28 05:50:43;;;;;;;17.75;10.55;;;;;;;8.57;nan;102323.38;5079946;28;20039;-57
2021/10/28 05:53:10;;;;;;;16.67;10.68;;;;;;;8.44;nan;102321.47;5080050;28;20020;-57
2021/10/28 05:55:35;;;;;;;16.90;11.23;;;;;;;8.42;nan;102320.81;5082400;28;20367;-56
2021/10/28 05:58:01;;;;;;;17.17;10.98;;;;;;;8.40;nan;102328.19;5086639;28;20019;-57
2021/10/28 06:00:27;;;;;;;16.88;10.82;;;;;;;8.36;nan;102328.78;5085454;28;20746;-57
2021/10/28 06:02:53;;;;;;;19.20;11.68;;;;;;;8.32;nan;102322.97;5084330;28;20019;-57
2021/10/28 06:05:19;;;;;;;20.25;10.95;;;;;;;8.28;nan;102323.56;5087476;28;20023;-57
2021/10/28 06:07:45;;;;;;;17.92;11.27;;;;;;;8.36;nan;102329.63;5085694;28;20048;-57
2021/10/28 06:10:12;;;;;;;18.95;11.75;;;;;;;8.43;nan;102321.63;5069102;28;20497;-56
2021/10/28 06:12:49;;;;;;;19.08;11.57;;;;;;;8.45;nan;102320.44;5087712;28;20028;-56
2021/10/28 06:15:15;;;;;;;17.15;10.90;;;;;;;8.49;nan;102318.19;5086815;28;20028;-57
2021/10/28 06:17:57;;;;;;;17.60;11.50;;;;;;;8.52;nan;102319.66;5085900;28;20035;-57
2021/10/28 06:20:23;;;;;;;17.85;10.88;;;;;;;8.52;nan;102325.00;5083323;28;20191;-57
2021/10/28 06:22:49;;;;;;;19.48;11.00;;;;;;;8.57;nan;102325.22;5087781;28;20020;-57
2021/10/28 06:25:15;;;;;;;18.70;10.38;;;;;;;8.58;nan;102321.53;5086775;28;20039;-57
2021/10/28 06:27:41;;;;;;;19.20;11.07;;;;;;;8.64;nan;102323.44;5081819;28;20027;-57
2021/10/28 06:30:07;;;;;;;18.98;12.02;;;;;;;8.67;nan;102329.22;5086501;28;20092;-57
2021/10/28 06:32:34;;;;;;;17.77;10.95;;;;;;;8.72;nan;102331.28;5086119;28;20104;-57
2021/10/28 06:35:02;;;;;;;20.73;11.85;;;;;;;8.75;nan;102337.06;5087111;28;20032;-56
2021/10/28 06:37:28;;;;;;;17.08;11.48;;;;;;;8.81;nan;102337.31;5084376;28;20031;-56
2021/10/28 06:39:54;;;;;;;17.77;10.65;;;;;;;8.86;nan;102334.84;5086985;28;20283;-57
2021/10/28 06:42:19;;;;;;;19.55;12.15;;;;;;;8.86;nan;102333.00;5080329;28;20096;-57
2021/10/28 06:44:45;;;;;;;19.63;11.70;;;;;;;8.87;nan;102329.31;5089013;28;20020;-57
2021/10/28 06:47:11;;;;;;;19.85;12.18;;;;;;;8.93;nan;102339.19;5067666;28;20543;-57
2021/10/28 06:49:40;;;;;;;16.98;11.02;;;;;;;8.99;nan;102335.75;5066517;28;20024;-56
2021/10/28 06:52:09;;;;;;;18.50;10.75;;;;;;;9.05;nan;102332.28;5080935;28;20012;-57
2021/10/28 06:54:36;;;;;;;16.55;10.05;;;;;;;9.14;nan;102329.41;5087227;28;20512;-57
2021/10/28 06:57:19;;;;;;;17.58;10.95;;;;;;;9.25;nan;102334.19;5087793;28;20028;-57
2021/10/28 07:02:33;;;;;;;16.75;10.45;;;;;;;9.51;nan;102344.13;5083814;28;20078;-56
2021/10/28 07:05:00;;;;;;;17.92;11.13;;;;;;;9.62;nan;102335.53;5089693;28;20469;-57
2021/10/28 07:07:29;;;;;;;16.05;9.95;;;;;;;9.69;nan;102339.03;5088440;28;20734;-57
2021/10/28 07:10:19;;;;;;;16.85;11.30;;;;;;;9.76;nan;102342.56;5089423;28;20043;-57
2021/10/28 07:15:16;;;;;;;18.92;13.02;;;;;;;9.89;nan;102333.75;5088959;28;20020;-57
2021/10/28 07:22:59;;;;;;;44.28;30.60;;;;;;;10.08;nan;102338.28;5089029;28;20028;-57
2021/10/28 07:33:39;;;;;;;18.42;12.10;;;;;;;10.48;nan;102341.78;5089589;28;20195;-56
2021/10/28 07:39:16;;;;;;;14.88;9.77;;;;;;;10.68;nan;102339.06;5089380;28;20051;-57
2021/10/28 07:55:54;;;;;;;16.92;10.30;;;;;;;10.73;nan;102330.38;5088565;28;20417;-58
2021/10/28 08:16:44;;;;;;;16.13;9.02;;;;;;;11.90;nan;102324.66;5086630;28;20267;-58
2021/10/28 08:20:01;;;;;;;11.10;8.07;;;;;;;12.11;nan;102326.16;5085538;28;20494;-58
2021/10/28 08:29:45;;;;;;;10.52;7.88;;;;;;;12.43;nan;102312.63;5087671;28;20080;-59
2021/10/28 08:32:11;;;;;;;10.73;7.05;;;;;;;12.44;nan;102312.41;5086338;28;20023;-60
2021/10/28 08:34:39;;;;;;;9.43;6.78;;;;;;;12.47;nan;102306.56;5086555;28;20397;-57
2021/10/28 08:37:12;;;;;;;11.73;7.63;;;;;;;12.67;nan;102311.75;5087443;28;20024;-58
2021/10/28 08:39:45;;;;;;;9.85;7.03;;;;;;;12.53;nan;102311.06;5087045;28;20031;-57
2021/10/28 08:42:12;;;;;;;13.25;7.47;;;;;;;12.50;nan;102310.69;5086972;28;20497;-55
2021/10/28 08:44:44;;;;;;;9.40;6.90;;;;;;;12.54;nan;102311.88;5087191;28;20032;-59
2021/10/28 08:47:10;;;;;;;8.90;6.75;;;;;;;12.66;nan;102310.91;5086920;28;20107;-57
2021/10/28 08:49:43;;;;;;;10.05;6.55;;;;;;;12.87;nan;102301.56;5087230;28;20020;-57
2021/10/28 08:57:52;;;;;;;10.23;6.55;;;;;;;13.13;nan;102299.63;5086575;28;20031;-59
2021/10/28 09:25:34;;;;;;;9.75;7.05;;;;;;;13.90;nan;102301.38;5086079;28;20042;-57
2021/10/28 09:28:17;;;;;;;10.73;7.18;;;;;;;14.03;nan;102299.53;5082363;28;20024;-57
2021/10/28 09:30:54;;;;;;;9.63;6.88;;;;;;;14.16;nan;102294.72;5080159;28;20071;-55
2021/10/28 09:33:34;;;;;;;10.65;7.80;;;;;;;14.28;nan;102300.13;5075688;28;20147;-57
2021/10/28 09:45:17;;;;;;;11.68;7.47;;;;;;;14.26;nan;102304.09;5085741;28;20038;-58
2021/10/28 09:48:02;;;;;;;10.15;7.35;;;;;;;14.36;nan;102304.31;5080619;28;20054;-57
2021/10/28 09:50:36;;;;;;;9.90;7.13;;;;;;;14.63;nan;102304.69;5083768;28;20036;-58
2021/10/28 09:53:07;;;;;;;12.45;8.38;;;;;;;14.73;nan;102289.56;5078462;28;20633;-56
2021/10/28 09:58:27;;;;;;;12.27;8.60;;;;;;;14.72;nan;102296.00;5081352;28;20039;-60
2021/10/28 10:00:57;;;;;;;11.05;7.72;;;;;;;14.89;nan;102295.25;5085953;28;20166;-58
2021/10/28 10:03:25;;;;;;;14.32;7.85;;;;;;;14.91;nan;102290.44;5083003;28;20142;-60
2021/10/28 10:05:59;;;;;;;11.48;7.50;;;;;;;15.00;nan;102294.41;5079500;28;20098;-58
2021/10/28 10:08:26;;;;;;;10.27;7.78;;;;;;;15.16;nan;102290.13;5083214;28;20485;-57
2021/10/28 10:10:53;;;;;;;12.55;8.30;;;;;;;15.29;nan;102287.13;5080054;28;20028;-55
2021/10/28 10:13:27;;;;;;;13.70;8.07;;;;;;;15.27;nan;102287.38;5079035;28;20393;-58
2021/10/28 10:16:03;;;;;;;11.82;7.95;;;;;;;15.41;nan;102285.16;5085637;28;20119;-57
2021/10/28 10:18:35;;;;;;;11.85;8.27;;;;;;;15.32;nan;102287.47;5064530;28;20063;-57
2021/10/28 12:23:32;;;;;;;13.75;7.40;;;;;;;27.33;nan;102145.69;5079705;28;20042;-59
2021/10/28 12:43:40;;;;;;;10.07;6.87;;;;;;;30.35;nan;102132.00;5085019;28;20451;-59
2021/10/28 12:46:28;;;;;;;10.05;7.00;;;;;;;28.03;nan;102126.94;5082746;28;20028;-61
2021/10/28 12:52:20;;;;;;;9.00;6.72;;;;;;;30.16;nan;102129.00;5074932;28;20047;-58
2021/10/28 13:35:51;;;;;;;9.15;6.15;;;;;;;16.86;nan;102083.03;5087720;28;20091;-60
2021/10/28 13:49:48;;;;;;;9.48;6.82;;;;;;;16.49;nan;102081.03;5083061;28;20033;-58
2021/10/28 13:52:09;;;;;;;12.50;7.00;;;;;;;16.42;nan;102077.72;5086307;28;20052;-57
2021/10/28 14:38:46;;;;;;;11.25;7.63;;;;;;;15.30;nan;102046.56;5085895;28;20066;-60
2021/10/28 15:37:53;;;;;;;12.25;8.35;;;;;;;13.51;nan;101986.97;5080381;28;20115;-55
2021/10/28 16:01:43;;;;;;;19.63;10.88;;;;;;;12.76;nan;101976.94;5082342;28;20024;-56
2021/10/28 16:23:14;;;;;;;22.20;12.05;;;;;;;12.10;nan;101969.88;5077663;28;20034;-58
2021/10/28 16:25:40;;;;;;;21.50;12.45;;;;;;;11.86;nan;101965.47;5085690;28;20028;-58
2021/10/28 16:28:05;;;;;;;16.98;11.43;;;;;;;11.76;nan;101974.81;5085112;28;20478;-58
2021/10/28 16:30:31;;;;;;;18.38;11.25;;;;;;;11.65;nan;101970.19;5085001;28;20030;-59
2021/10/28 16:32:56;;;;;;;17.52;11.40;;;;;;;11.57;nan;101967.84;5083314;28;20490;-59
2021/10/28 16:35:22;;;;;;;18.20;11.00;;;;;;;11.48;nan;101971.84;5083147;28;20035;-57
2021/10/28 16:37:49;;;;;;;19.23;11.30;;;;;;;11.44;nan;101968.81;5085221;28;20027;-58
2021/10/28 16:40:15;;;;;;;17.40;10.70;;;;;;;11.43;nan;101960.97;5081857;28;20082;-58
2021/10/28 16:42:41;;;;;;;15.57;10.52;;;;;;;11.41;nan;101963.88;5084241;28;20274;-60
2021/10/28 16:45:08;;;;;;;18.80;11.02;;;;;;;11.35;nan;101951.38;5086007;28;20443;-59
2021/10/28 16:47:36;;;;;;;18.48;10.90;;;;;;;11.28;nan;101963.22;5082843;28;20559;-58
2021/10/28 16:50:07;;;;;;;18.25;11.60;;;;;;;11.25;nan;101955.59;5079180;28;20035;-57
2021/10/28 16:52:33;;;;;;;14.38;10.50;;;;;;;11.18;nan;101956.50;5080074;28;20199;-59
2021/10/28 16:54:59;;;;;;;14.02;10.40;;;;;;;11.19;nan;101958.16;5081568;28;20482;-57
2021/10/28 16:57:25;;;;;;;17.15;10.93;;;;;;;11.19;nan;101958.16;5080922;28;20119;-60
2021/10/28 16:59:50;;;;;;;18.08;11.32;;;;;;;11.15;nan;101956.97;5081473;28;20478;-58
2021/10/28 17:02:16;;;;;;;16.92;10.20;;;;;;;11.07;nan;101949.19;5081615;28;20252;-57
2021/10/28 17:04:42;;;;;;;17.70;11.25;;;;;;;11.07;nan;101948.38;5079099;28;20397;-59
2021/10/28 17:07:07;;;;;;;16.45;10.80;;;;;;;11.06;nan;101947.53;5083171;28;20036;-57
2021/10/28 17:09:33;;;;;;;15.23;10.30;;;;;;;11.10;nan;101946.06;5079328;28;20034;-59
2021/10/28 17:11:59;;;;;;;17.90;11.77;;;;;;;11.08;nan;101948.16;5080795;28;20042;-59
2021/10/28 17:14:24;;;;;;;19.67;11.95;;;;;;;11.05;nan;101951.28;5081526;28;20035;-60
2021/10/28 17:16:50;;;;;;;17.90;11.13;;;;;;;11.11;nan;101957.59;5077653;28;20016;-56
2021/10/28 17:19:17;;;;;;;22.70;13.00;;;;;;;11.11;nan;101947.69;5075443;28;20036;-57
2021/10/28 17:21:45;;;;;;;18.45;11.98;;;;;;;11.14;nan;101954.50;5081815;28;20123;-58
2021/10/28 17:24:32;;;;;;;20.45;12.00;;;;;;;11.16;nan;101944.38;5078036;28;20366;-58
2021/10/28 17:26:58;;;;;;;20.90;12.98;;;;;;;11.16;nan;101944.38;5081396;28;20366;-58
2021/10/28 17:29:23;;;;;;;18.42;11.82;;;;;;;11.14;nan;101949.13;5081060;28;20031;-60
2021/10/28 17:31:51;;;;;;;21.50;12.82;;;;;;;11.08;nan;101944.63;5077567;28;20070;-58
2021/10/28 17:34:17;;;;;;;19.95;11.98;;;;;;;11.09;nan;101947.09;5082514;28;20214;-56
2021/10/28 17:36:48;;;;;;;22.48;12.85;;;;;;;11.09;nan;101949.78;5081625;28;21431;-59
2021/10/28 17:39:14;;;;;;;23.63;13.77;;;;;;;11.00;nan;101943.09;5081381;28;20016;-58
2021/10/28 17:41:39;;;;;;;24.13;13.60;;;;;;;10.94;nan;101941.25;5081533;28;20470;-57
2021/10/28 17:44:06;;;;;;;24.10;14.45;;;;;;;10.90;nan;101929.34;5082588;28;20085;-57
2021/10/28 17:46:31;;;;;;;22.42;13.50;;;;;;;10.90;nan;101940.88;5077029;28;20430;-60
2021/10/28 17:48:58;;;;;;;21.40;13.02;;;;;;;10.89;nan;101936.56;5080375;28;20111;-59
2021/10/28 17:51:24;;;;;;;26.42;13.77;;;;;;;10.86;nan;101930.84;5079008;28;20382;-59
2021/10/28 17:53:50;;;;;;;20.95;14.23;;;;;;;10.84;nan;101933.75;5082294;28;20097;-57
2021/10/28 17:56:17;;;;;;;26.90;13.38;;;;;;;10.77;nan;101940.19;5082289;28;20435;-58
2021/10/28 17:58:42;;;;;;;20.65;12.48;;;;;;;10.72;nan;101937.34;5083738;28;20523;-56
2021/10/28 18:01:10;;;;;;;22.50;13.57;;;;;;;10.67;nan;101943.38;5080316;28;20029;-58
2021/10/28 18:03:36;;;;;;;19.27;13.15;;;;;;;10.66;nan;101938.25;5084438;28;20055;-57
2021/10/28 18:06:02;;;;;;;18.73;13.15;;;;;;;10.64;nan;101935.78;5087484;28;20032;-57
2021/10/28 18:08:27;;;;;;;21.15;12.80;;;;;;;10.64;nan;101930.44;5068214;28;20036;-57
2021/10/28 18:10:53;;;;;;;22.77;12.60;;;;;;;10.58;nan;101932.09;5082968;28;20461;-57
2021/10/28 18:13:19;;;;;;;24.65;14.30;;;;;;;10.57;nan;101930.47;5076952;28;20035;-60
2021/10/28 18:15:46;;;;;;;21.40;13.63;;;;;;;10.57;nan;101932.31;5081496;28;20028;-59
2021/10/28 18:18:12;;;;;;;23.60;13.90;;;;;;;10.54;nan;101927.41;5075448;28;20421;-57
2021/10/28 18:20:39;;;;;;;22.08;14.02;;;;;;;10.52;nan;101922.28;5078808;28;20016;-55
2021/10/28 18:23:06;;;;;;;23.10;13.30;;;;;;;10.46;nan;101917.78;5083158;28;20249;-58
2021/10/28 18:25:33;;;;;;;19.77;14.18;;;;;;;10.41;nan;101920.31;5080350;28;20055;-56
2021/10/28 18:28:00;;;;;;;22.65;13.93;;;;;;;10.39;nan;101917.00;5078456;28;20466;-57
2021/10/28 18:30:36;;;;;;;21.80;13.52;;;;;;;10.37;nan;101919.09;5079753;28;20020;-55
2021/10/28 18:33:02;;;;;;;26.23;14.57;;;;;;;10.32;nan;101916.25;5081488;28;20047;-57
2021/10/28 18:35:28;;;;;;;24.15;14.38;;;;;;;10.26;nan;101911.78;5082589;28;20036;-58
2021/10/28 18:37:54;;;;;;;22.98;14.40;;;;;;;10.24;nan;101909.31;5080806;28;20023;-58
2021/10/28 18:40:20;;;;;;;22.83;14.82;;;;;;;10.18;nan;101912.81;5079385;28;20398;-58
2021/10/28 18:42:46;;;;;;;24.55;14.13;;;;;;;10.14;nan;101911.59;5079318;28;20618;-58
2021/10/28 18:45:13;;;;;;;27.70;13.93;;;;;;;10.16;nan;101912.22;5081027;28;20228;-57
2021/10/28 18:47:38;;;;;;;24.13;14.20;;;;;;;10.09;nan;101910.63;5081087;28;20124;-59
2021/10/28 18:50:05;;;;;;;24.95;14.85;;;;;;;10.07;nan;101902.81;5081378;28;20500;-56
2021/10/28 18:52:31;;;;;;;24.25;14.35;;;;;;;10.07;nan;101902.00;5079221;28;20056;-58
2021/10/28 18:54:58;;;;;;;25.27;14.30;;;;;;;10.05;nan;101902.19;5081371;28;20493;-58
2021/10/28 18:57:23;;;;;;;25.05;14.20;;;;;;;10.03;nan;101895.41;5078271;28;20038;-58
2021/10/28 18:59:49;;;;;;;25.50;14.95;;;;;;;10.02;nan;101893.75;5079860;28;20482;-58
2021/10/28 19:02:16;;;;;;;25.60;16.02;;;;;;;9.98;nan;101888.03;5079836;28;20099;-59
2021/10/28 19:04:42;;;;;;;24.13;15.27;;;;;;;9.96;nan;101901.63;5078349;28;20055;-59
2021/10/28 19:07:08;;;;;;;26.00;14.77;;;;;;;9.93;nan;101888.69;5074210;28;20439;-57
2021/10/28 19:09:34;;;;;;;23.90;15.18;;;;;;;9.87;nan;101886.84;5070861;28;20072;-58
2021/10/28 19:11:59;;;;;;;27.48;15.68;;;;;;;9.88;nan;101888.53;5078414;28;20012;-58
2021/10/28 19:14:26;;;;;;;22.58;14.13;;;;;;;9.83;nan;101882.97;5078221;28;20492;-58
2021/10/28 19:16:52;;;;;;;24.88;14.93;;;;;;;9.78;nan;101877.44;5071763;28;20157;-59
2021/10/28 19:19:18;;;;;;;21.55;14.30;;;;;;;9.78;nan;101873.94;5072410;28;20121;-59
2021/10/28 19:21:44;;;;;;;23.38;14.63;;;;;;;9.76;nan;101868.81;5077946;28;20098;-57
2021/10/28 19:24:09;;;;;;;23.95;15.02;;;;;;;9.75;nan;101866.34;5080910;28;20467;-57
2021/10/28 19:26:35;;;;;;;25.88;14.73;;;;;;;9.69;nan;101871.53;5074577;28;20043;-58
2021/10/28 19:29:03;;;;;;;25.35;14.00;;;;;;;9.67;nan;101870.91;5080471;28;20669;-56
2021/10/28 19:31:32;;;;;;;25.63;15.32;;;;;;;9.68;nan;101869.06;5079863;28;20111;-59
2021/10/28 19:34:00;;;;;;;29.38;16.15;;;;;;;9.65;nan;101869.47;5074892;28;20460;-57
2021/10/28 19:36:40;;;;;;;23.52;15.18;;;;;;;9.68;nan;101874.41;5078864;28;20024;-57
2021/10/28 19:46:45;;;;;;;23.70;15.68;;;;;;;9.67;nan;101867.41;5077978;28;20054;-57
2021/10/28 19:49:10;;;;;;;24.95;15.57;;;;;;;9.67;nan;101864.72;5078439;28;20040;-57
2021/10/28 19:51:36;;;;;;;29.48;16.80;;;;;;;9.63;nan;101866.22;5078398;28;20111;-56
2021/10/28 19:54:03;;;;;;;23.02;15.23;;;;;;;9.60;nan;101859.44;5079488;28;20200;-57
2021/10/28 19:56:28;;;;;;;27.58;16.20;;;;;;;9.55;nan;101866.47;5060715;28;20063;-57
2021/10/28 19:58:59;;;;;;;28.67;16.85;;;;;;;9.51;nan;101865.22;5080803;28;20471;-57
2021/10/28 20:01:35;;;;;;;31.58;16.45;;;;;;;9.45;nan;101860.75;5079970;28;20028;-56
2021/10/28 20:14:46;;;;;;;29.30;17.48;;;;;;;9.22;nan;101861.25;5080798;28;20042;-57
2021/10/28 20:20:14;;;;;;;30.88;17.35;;;;;;;9.09;nan;101862.13;5079409;28;20070;-57
2021/10/28 20:22:43;;;;;;;32.00;18.10;;;;;;;9.06;nan;101854.53;5084426;28;20024;-57
2021/10/28 20:25:14;;;;;;;29.75;18.20;;;;;;;9.02;nan;101851.47;5085865;28;20523;-57
2021/10/28 20:27:40;;;;;;;31.48;18.50;;;;;;;8.96;nan;101857.63;5082903;28;20271;-57
2021/10/28 20:30:08;;;;;;;31.08;17.23;;;;;;;8.94;nan;101851.69;5083637;28;20024;-56
2021/10/28 20:32:34;;;;;;;31.13;18.33;;;;;;;8.90;nan;101845.13;5079465;28;20031;-56